Time;durP1;ratioP1;P1;durP2;ratioP2;P2;SDS_P1;SDS_P2;PMS_P1;PMS_P2;Temp;Humidity;BMP_temperature;BMP_pressure;BME280_temperature;BME280_humidity;BME280_pressure;Samples;Min_cycle;Max_cycle;Signal;HPM_P1;HPM_P2
2022/09/17 00:00:14;;;;;;;;;4.33;4.33;;;;;12.59;70.08;101471.34;5032321;27;47254;-76
2022/09/17 00:02:42;;;;;;;;;6.67;6.67;;;;;12.56;70.06;101469.00;5036873;27;45195;-76
2022/09/17 00:05:08;;;;;;;;;13.33;11.00;;;;;12.52;69.87;101459.69;5036382;27;45393;-76
2022/09/17 00:07:34;;;;;;;;;15.67;15.00;;;;;12.52;69.88;101467.69;5036266;27;45506;-76
2022/09/17 00:09:59;;;;;;;;;30.33;28.67;;;;;12.46;69.77;101456.72;5036407;27;45325;-76
2022/09/17 00:12:24;;;;;;;;;38.25;33.00;;;;;12.44;69.45;101466.72;5036709;27;48061;-75
2022/09/17 00:14:49;;;;;;;;;37.75;32.75;;;;;12.42;69.81;101474.03;5046160;27;45400;-75
2022/09/17 00:17:15;;;;;;;;;35.75;33.00;;;;;12.36;69.55;101469.38;5031785;27;50360;-76
2022/09/17 00:19:40;;;;;;;;;23.00;21.33;;;;;12.40;69.72;101470.72;5018337;27;47435;-75
2022/09/17 00:22:05;;;;;;;;;18.00;17.33;;;;;12.41;70.20;101472.38;5035894;27;45795;-76
2022/09/17 00:24:31;;;;;;;;;11.33;11.00;;;;;12.40;69.87;101476.06;5024491;27;45329;-75
2022/09/17 00:26:56;;;;;;;;;6.67;6.67;;;;;12.39;70.02;101474.38;5043909;27;45403;-75
2022/09/17 00:29:21;;;;;;;;;7.00;7.00;;;;;12.45;70.21;101475.56;5036072;27;47948;-76
2022/09/17 00:31:46;;;;;;;;;6.67;5.67;;;;;12.44;70.06;101474.72;5046845;27;45280;-75
2022/09/17 00:34:12;;;;;;;;;4.00;3.00;;;;;12.47;70.22;101474.38;5035955;27;45263;-75
2022/09/17 00:36:38;;;;;;;;;5.67;4.67;;;;;12.47;70.20;101469.03;5036013;27;45550;-76
2022/09/17 00:39:06;;;;;;;;;12.67;12.67;;;;;12.54;70.01;101476.38;5031863;27;48184;-76
2022/09/17 00:41:33;;;;;;;;;14.00;12.33;;;;;12.45;70.18;101464.88;5037940;27;45366;-76
2022/09/17 00:44:20;;;;;;;;;12.33;11.33;;;;;12.45;69.80;101472.88;5043507;27;45447;-76
2022/09/17 00:46:47;;;;;;;;;10.33;8.00;;;;;12.41;70.19;101475.03;5025274;27;45321;-75
2022/09/17 00:49:17;;;;;;;;;6.33;6.33;;;;;12.34;70.18;101476.72;5054556;27;47630;-75
2022/09/17 00:51:53;;;;;;;;;6.00;3.67;;;;;12.33;69.67;101469.72;5053597;27;45323;-75
2022/09/17 00:54:19;;;;;;;;;3.00;2.00;;;;;12.35;69.73;101476.56;5035918;27;45402;-76
2022/09/17 00:56:46;;;;;;;;;2.67;2.67;;;;;12.35;69.77;101476.56;5029951;27;46194;-75
2022/09/17 00:59:12;;;;;;;;;3.33;3.33;;;;;12.34;69.49;101474.06;5035725;27;45251;-75
2022/09/17 01:01:38;;;;;;;;;3.00;3.00;;;;;12.31;69.85;101469.91;5031347;27;45382;-76
2022/09/17 01:04:03;;;;;;;;;2.00;2.00;;;;;12.35;69.94;101478.38;5035869;27;45255;-76
2022/09/17 01:07:00;;;;;;;;;3.00;3.00;;;;;12.40;69.08;101480.53;5035475;27;45542;-76
2022/09/17 01:09:47;;;;;;;;;1.33;1.33;;;;;12.40;69.27;101477.88;5028339;27;48348;-75
2022/09/17 01:12:25;;;;;;;;;2.67;2.67;;;;;12.41;68.89;101479.53;5041451;27;45388;-76
2022/09/17 01:15:15;;;;;;;;;2.67;2.67;;;;;12.40;68.84;101478.72;5031432;27;45505;-76
2022/09/17 01:18:05;;;;;;;;;2.67;2.67;;;;;12.36;68.67;101478.22;5037260;27;47116;-75
2022/09/17 01:20:49;;;;;;;;;3.00;2.67;;;;;12.34;69.55;101482.06;5038368;27;45988;-76
2022/09/17 01:23:52;;;;;;;;;2.33;2.00;;;;;12.33;69.50;101478.53;5030127;27;45423;-75
2022/09/17 01:26:45;;;;;;;;;3.00;3.00;;;;;12.33;69.12;101475.88;5027393;27;45464;-76
2022/09/17 01:29:29;;;;;;;;;2.33;2.33;;;;;12.32;68.84;101474.22;5041598;27;45436;-76
2022/09/17 01:32:12;;;;;;;;;2.00;2.00;;;;;12.32;69.12;101479.56;5038421;27;45388;-75
2022/09/17 01:34:46;;;;;;;;;2.00;2.00;;;;;12.27;69.45;101475.72;5039616;27;45559;-76
2022/09/17 01:37:18;;;;;;;;;3.67;3.67;;;;;12.28;69.75;101472.91;5045723;27;45310;-76
2022/09/17 01:39:51;;;;;;;;;2.00;2.00;;;;;12.21;69.37;101485.22;5037803;27;45361;-76
2022/09/17 01:42:46;;;;;;;;;2.00;2.00;;;;;12.23;69.67;101485.88;5032587;27;48019;-76
2022/09/17 01:45:16;;;;;;;;;3.00;3.00;;;;;12.21;69.81;101488.72;5038219;27;45293;-76
2022/09/17 01:47:48;;;;;;;;;3.00;3.00;;;;;12.21;70.07;101487.91;5038209;27;45445;-76
2022/09/17 01:50:24;;;;;;;;;2.00;2.00;;;;;12.19;69.88;101496.06;5042019;27;45407;-75
2022/09/17 01:52:54;;;;;;;;;2.67;2.67;;;;;12.14;69.82;101500.19;5046588;27;46578;-75
2022/09/17 01:55:23;;;;;;;;;2.33;2.00;;;;;12.16;69.81;101495.53;5038026;27;45334;-76
2022/09/17 01:58:11;;;;;;;;;4.00;3.00;;;;;12.14;69.88;101494.88;5038258;27;45325;-76
2022/09/17 02:00:41;;;;;;;;;3.33;2.00;;;;;12.14;69.69;101498.38;5037810;27;45370;-76
2022/09/17 02:03:25;;;;;;;;;1.00;1.00;;;;;12.15;69.65;101502.69;5031919;27;47306;-76
2022/09/17 02:06:00;;;;;;;;;3.00;3.00;;;;;12.19;69.77;101498.72;5039768;27;45966;-75
2022/09/17 02:08:33;;;;;;;;;3.00;2.33;;;;;12.19;69.83;101500.53;5040068;27;45453;-76
2022/09/17 02:11:08;;;;;;;;;3.00;2.00;;;;;12.15;69.79;101494.69;5033258;27;47228;-76
2022/09/17 02:13:48;;;;;;;;;2.00;2.00;;;;;12.20;69.61;101507.53;5019919;27;48061;-76
2022/09/17 02:16:23;;;;;;;;;2.00;2.00;;;;;12.18;69.74;101501.56;5042872;27;45478;-76
2022/09/17 02:18:55;;;;;;;;;3.33;3.00;;;;;12.16;69.95;101503.53;5042103;27;45275;-75
2022/09/17 02:21:33;;;;;;;;;4.00;2.00;;;;;12.15;70.00;101500.03;5037368;27;45172;-76
2022/09/17 02:24:06;;;;;;;;;4.00;3.00;;;;;12.17;70.08;101510.53;5037278;27;45657;-76
2022/09/17 02:26:38;;;;;;;;;3.00;2.00;;;;;12.09;69.85;101500.72;5037721;27;45392;-76
2022/09/17 02:29:14;;;;;;;;;2.67;2.67;;;;;12.12;69.84;101508.34;5033734;27;45571;-76
2022/09/17 02:31:40;;;;;;;;;3.00;3.00;;;;;12.09;70.04;101500.72;5037764;27;45435;-76
2022/09/17 02:34:06;;;;;;;;;3.67;3.00;;;;;12.05;70.06;101497.50;5037375;27;45484;-75
2022/09/17 02:36:33;;;;;;;;;2.00;2.00;;;;;12.03;70.16;101494.16;5037541;27;45454;-76
2022/09/17 02:39:00;;;;;;;;;2.00;2.00;;;;;12.07;70.65;101505.38;5037632;27;45287;-76
2022/09/17 02:41:44;;;;;;;;;3.00;3.00;;;;;12.04;70.25;101498.50;5037302;27;45553;-76
2022/09/17 02:44:25;;;;;;;;;2.00;2.00;;;;;12.08;70.05;101513.19;5037389;27;46148;-76
2022/09/17 02:47:11;;;;;;;;;4.00;3.00;;;;;12.10;70.45;101513.03;5037713;27;45336;-76
2022/09/17 02:49:52;;;;;;;;;1.00;1.00;;;;;12.09;70.14;101511.38;5037352;27;45404;-76
2022/09/17 02:52:26;;;;;;;;;2.00;2.00;;;;;12.09;70.13;101517.53;5029782;27;46762;-76
2022/09/17 02:55:27;;;;;;;;;2.00;2.00;;;;;12.08;70.00;101510.53;5043243;27;46606;-77
2022/09/17 02:57:52;;;;;;;;;3.67;2.00;;;;;12.06;70.19;101517.81;5037624;27;45392;-75
2022/09/17 03:00:21;;;;;;;;;1.67;1.67;;;;;12.03;70.45;101512.00;5033488;27;45360;-76
2022/09/17 03:02:55;;;;;;;;;1.67;1.67;;;;;12.00;70.44;101508.66;5037693;27;45523;-75
2022/09/17 03:05:22;;;;;;;;;1.33;1.33;;;;;12.01;70.40;101520.16;5037152;27;45235;-76
2022/09/17 03:07:47;;;;;;;;;3.00;3.00;;;;;11.98;69.95;101509.81;5036869;27;45283;-77
2022/09/17 03:10:13;;;;;;;;;4.00;2.00;;;;;11.99;70.32;101519.47;5037214;27;45331;-75
2022/09/17 03:12:39;;;;;;;;;3.00;2.00;;;;;11.97;70.33;101514.31;5037305;27;45853;-76
2022/09/17 03:15:05;;;;;;;;;2.00;2.00;;;;;11.89;70.53;101503.66;5036939;27;45623;-76
2022/09/17 03:17:31;;;;;;;;;2.00;2.00;;;;;11.93;70.73;101514.81;5048312;27;45553;-75
2022/09/17 03:19:56;;;;;;;;;3.00;3.00;;;;;11.87;70.70;101509.16;5037375;27;45704;-76
2022/09/17 03:22:21;;;;;;;;;3.00;3.00;;;;;11.83;70.75;101505.13;5036855;27;45367;-75
2022/09/17 03:24:47;;;;;;;;;3.00;3.00;;;;;11.76;70.86;101503.31;5037061;27;46257;-76
2022/09/17 03:27:12;;;;;;;;;4.00;4.00;;;;;11.79;70.65;101506.44;5033143;27;45846;-76
2022/09/17 03:29:37;;;;;;;;;4.67;4.33;;;;;11.76;70.86;101511.28;5037393;27;45342;-76
2022/09/17 03:32:03;;;;;;;;;4.67;3.67;;;;;11.73;70.79;101507.09;5036711;27;45439;-76
2022/09/17 03:34:28;;;;;;;;;3.00;3.00;;;;;11.70;70.89;101508.28;5037073;27;47032;-76
2022/09/17 03:36:54;;;;;;;;;5.00;5.00;;;;;11.69;70.86;101511.94;5046516;27;47340;-76
2022/09/17 03:39:19;;;;;;;;;4.33;4.33;;;;;11.60;71.00;101499.59;5036873;27;45360;-76
2022/09/17 03:41:44;;;;;;;;;4.00;4.00;;;;;11.67;70.91;101508.59;5027110;27;45908;-75
2022/09/17 03:44:10;;;;;;;;;4.00;4.00;;;;;11.65;70.77;101502.63;5042870;27;46199;-76
2022/09/17 03:46:36;;;;;;;;;5.00;3.00;;;;;11.65;70.69;101510.59;5036855;27;45418;-76
2022/09/17 03:49:01;;;;;;;;;3.33;3.33;;;;;11.66;70.42;101514.91;5037024;27;45224;-75
2022/09/17 03:51:26;;;;;;;;;5.67;5.33;;;;;11.58;70.78;101510.41;5050476;27;45154;-75
2022/09/17 03:53:52;;;;;;;;;4.67;4.67;;;;;11.69;70.87;101519.94;5036641;27;46169;-76
2022/09/17 03:56:17;;;;;;;;;5.33;5.33;;;;;11.58;70.84;101513.06;5036868;27;45454;-76
2022/09/17 03:58:43;;;;;;;;;7.00;5.67;;;;;11.60;70.51;101518.22;5036169;27;45992;-76
2022/09/17 04:01:08;;;;;;;;;5.00;5.00;;;;;11.57;70.85;101532.72;5046993;27;45432;-76
2022/09/17 04:03:33;;;;;;;;;8.00;8.00;;;;;11.55;71.19;101525.88;5036202;27;46628;-76
2022/09/17 04:05:59;;;;;;;;;6.33;6.33;;;;;11.58;71.06;101534.38;5026008;27;45370;-75
2022/09/17 04:08:24;;;;;;;;;9.00;7.00;;;;;11.48;71.17;101515.03;5043093;27;45917;-76
2022/09/17 04:10:50;;;;;;;;;8.67;7.67;;;;;11.55;71.15;101531.22;5036412;27;45284;-76
2022/09/17 04:13:17;;;;;;;;;6.00;5.67;;;;;11.55;71.45;101531.22;5036298;27;46219;-76
2022/09/17 04:15:43;;;;;;;;;7.00;7.00;;;;;11.53;71.48;101527.84;5036963;27;45325;-76
2022/09/17 04:18:09;;;;;;;;;9.00;7.67;;;;;11.41;71.22;101528.16;5055220;28;45405;-76
2022/09/17 04:20:34;;;;;;;;;9.67;8.00;;;;;11.36;71.28;101533.13;5040295;27;45479;-76
2022/09/17 04:23:00;;;;;;;;;7.33;7.33;;;;;11.26;71.29;101527.09;5036173;27;45575;-76
2022/09/17 04:25:25;;;;;;;;;9.67;8.00;;;;;11.24;71.77;101538.75;5036364;27;45323;-76
2022/09/17 04:27:51;;;;;;;;;11.33;10.67;;;;;11.19;71.69;101533.03;5038001;27;45300;-76
2022/09/17 04:30:16;;;;;;;;;10.00;9.00;;;;;11.16;71.72;101544.00;5044716;27;45445;-76
2022/09/17 04:32:43;;;;;;;;;10.00;10.00;;;;;11.13;71.66;101549.63;5032237;27;48486;-76
2022/09/17 04:35:08;;;;;;;;;10.00;9.00;;;;;11.02;71.96;101547.25;5036182;27;45376;-75
2022/09/17 04:37:34;;;;;;;;;9.00;7.67;;;;;10.92;72.48;101540.22;5035746;27;45217;-75
2022/09/17 04:39:59;;;;;;;;;9.00;7.67;;;;;10.90;73.04;101544.03;5036249;27;45532;-76
2022/09/17 04:42:24;;;;;;;;;9.00;9.00;;;;;10.82;73.07;101548.31;5037273;27;45604;-76
2022/09/17 04:44:50;;;;;;;;;9.33;8.00;;;;;10.93;72.89;101551.69;5042516;27;45318;-75
2022/09/17 04:47:15;;;;;;;;;8.00;7.00;;;;;10.93;72.87;101559.66;5042699;27;45646;-76
2022/09/17 04:49:40;;;;;;;;;9.00;6.67;;;;;10.94;72.78;101554.19;5038745;27;45468;-76
2022/09/17 04:52:06;;;;;;;;;7.67;7.67;;;;;10.89;72.86;101559.13;5061473;28;45533;-76
2022/09/17 04:54:31;;;;;;;;;9.33;8.33;;;;;10.81;73.37;101559.91;5051177;28;45408;-75
2022/09/17 04:56:58;;;;;;;;;8.00;7.67;;;;;10.81;73.22;101556.44;5027695;27;45693;-76
2022/09/17 04:59:23;;;;;;;;;8.33;8.00;;;;;10.82;73.17;101561.59;5035483;27;45641;-76
2022/09/17 05:01:48;;;;;;;;;9.00;8.33;;;;;10.84;73.16;101567.56;5041973;27;45404;-76
2022/09/17 05:04:14;;;;;;;;;11.00;9.33;;;;;10.77;73.20;101560.41;5042616;27;45486;-75
2022/09/17 05:06:39;;;;;;;;;10.00;10.00;;;;;10.72;73.68;101564.34;5042333;27;45378;-75
2022/09/17 05:09:04;;;;;;;;;10.67;8.67;;;;;10.68;73.22;101567.47;5041910;27;45450;-74
2022/09/17 05:11:30;;;;;;;;;8.00;8.00;;;;;10.67;73.42;101568.47;5042288;27;46329;-75
2022/09/17 05:13:55;;;;;;;;;10.33;8.00;;;;;10.66;73.49;101575.63;5041992;27;45394;-75
2022/09/17 05:16:20;;;;;;;;;8.33;8.00;;;;;10.63;73.88;101573.25;5048558;27;45344;-75
2022/09/17 05:18:47;;;;;;;;;9.00;9.00;;;;;10.59;73.67;101563.91;5047222;27;45318;-75
2022/09/17 05:21:13;;;;;;;;;10.67;9.67;;;;;10.62;73.92;101573.41;5023971;27;47605;-75
2022/09/17 05:23:38;;;;;;;;;12.00;10.67;;;;;10.57;73.98;101571.22;5041939;27;45338;-75
2022/09/17 05:26:03;;;;;;;;;7.00;7.00;;;;;10.59;74.09;101575.38;5042030;27;45590;-75
2022/09/17 05:28:29;;;;;;;;;10.00;10.00;;;;;10.51;74.42;101571.81;5042032;27;45328;-76
2022/09/17 05:30:58;;;;;;;;;9.00;9.00;;;;;10.53;74.36;101585.81;5041903;27;46531;-75
2022/09/17 05:33:23;;;;;;;;;9.00;9.00;;;;;10.48;74.21;101580.94;5035562;27;45644;-75
2022/09/17 05:35:49;;;;;;;;;6.67;6.67;;;;;10.55;74.40;101583.81;5061074;27;45578;-75
2022/09/17 05:38:14;;;;;;;;;8.67;7.67;;;;;10.57;74.02;101581.84;5054998;27;47142;-75
2022/09/17 05:40:39;;;;;;;;;10.00;10.00;;;;;10.53;74.21;101578.66;5045644;27;48078;-76
2022/09/17 05:43:06;;;;;;;;;8.00;7.67;;;;;10.58;74.21;101595.00;5065839;27;45729;-76
2022/09/17 05:45:33;;;;;;;;;10.33;7.00;;;;;10.51;74.65;101583.31;5052755;27;45405;-75
2022/09/17 05:48:01;;;;;;;;;12.00;10.33;;;;;10.56;74.51;101588.97;5023698;27;47443;-75
2022/09/17 05:50:27;;;;;;;;;9.67;8.00;;;;;10.54;74.37;101590.94;5029117;27;46332;-76
2022/09/17 05:52:53;;;;;;;;;14.00;12.00;;;;;10.51;74.77;101588.63;5031613;27;46200;-75
2022/09/17 05:55:21;;;;;;;;;7.67;6.67;;;;;10.51;74.63;101593.94;5038288;27;45304;-75
2022/09/17 05:57:47;;;;;;;;;7.33;7.33;;;;;10.43;74.62;101583.19;5030259;27;45514;-75
2022/09/17 06:00:12;;;;;;;;;9.67;8.67;;;;;10.53;74.75;101601.75;5023750;27;47515;-75
2022/09/17 06:02:38;;;;;;;;;13.67;10.67;;;;;10.55;74.91;101600.59;5037947;27;45305;-75
2022/09/17 06:05:04;;;;;;;;;9.67;8.33;;;;;10.58;74.78;101602.97;5034277;27;45392;-76
2022/09/17 06:07:30;;;;;;;;;8.33;8.33;;;;;10.58;75.03;101597.66;5051911;27;45389;-76
2022/09/17 06:09:55;;;;;;;;;10.00;8.33;;;;;10.63;74.63;101613.13;5031870;27;48450;-77
2022/09/17 06:12:21;;;;;;;;;11.00;6.00;;;;;10.62;74.69;101603.47;5040008;27;45455;-76
2022/09/17 06:14:46;;;;;;;;;8.67;7.67;;;;;10.60;75.25;101603.63;5030029;27;45392;-77
2022/09/17 06:17:12;;;;;;;;;7.67;7.67;;;;;10.71;75.45;101628.31;5053130;27;45336;-76
2022/09/17 06:19:37;;;;;;;;;7.67;7.67;;;;;10.70;75.26;101618.66;5020045;27;47320;-76
2022/09/17 06:22:04;;;;;;;;;15.67;13.67;;;;;10.70;75.60;101619.50;5037727;27;45238;-77
2022/09/17 06:24:30;;;;;;;;;7.00;7.00;;;;;10.70;75.54;101616.00;5020246;27;45285;-77
2022/09/17 06:26:55;;;;;;;;;9.00;9.00;;;;;10.80;75.57;101613.25;5032007;27;46397;-75
2022/09/17 06:29:20;;;;;;;;;8.00;8.00;;;;;10.81;75.66;101609.63;5039467;27;54966;-75
2022/09/17 06:31:49;;;;;;;;;9.67;9.67;;;;;10.84;75.43;101627.94;5030653;27;45262;-76
2022/09/17 06:34:15;;;;;;;;;8.00;8.00;;;;;10.80;75.69;101626.53;5042129;27;45325;-76
2022/09/17 06:36:40;;;;;;;;;10.00;9.67;;;;;10.81;75.78;101613.09;5064204;27;45339;-76
2022/09/17 06:39:06;;;;;;;;;8.00;7.00;;;;;10.89;76.01;101628.28;5063906;27;45664;-77
2022/09/17 06:41:32;;;;;;;;;7.00;7.00;;;;;10.89;75.92;101622.16;5041671;27;45327;-76
2022/09/17 06:43:57;;;;;;;;;6.00;6.00;;;;;10.91;75.51;101626.31;5042626;27;45505;-76
2022/09/17 06:46:23;;;;;;;;;8.67;8.00;;;;;10.95;76.01;101621.50;5038391;27;47105;-77
2022/09/17 06:48:48;;;;;;;;;5.00;4.67;;;;;11.05;75.70;101632.06;5049515;27;45509;-77
2022/09/17 06:51:13;;;;;;;;;6.33;6.00;;;;;11.16;75.33;101631.81;5052401;27;45378;-77
2022/09/17 06:53:39;;;;;;;;;5.67;5.67;;;;;11.20;75.43;101629.69;5040160;27;45251;-77
2022/09/17 06:56:07;;;;;;;;;6.33;5.33;;;;;11.25;75.33;101624.69;5020546;27;46248;-77
2022/09/17 06:58:37;;;;;;;;;6.00;5.67;;;;;11.26;75.30;101621.06;5037976;27;45392;-77
2022/09/17 07:01:03;;;;;;;;;6.67;5.67;;;;;11.34;74.93;101630.91;5038298;27;45522;-78
2022/09/17 07:03:30;;;;;;;;;4.67;4.00;;;;;11.41;74.88;101626.66;5033591;27;45334;-78
2022/09/17 07:05:56;;;;;;;;;5.00;4.00;;;;;11.48;74.53;101616.19;5036682;27;45353;-78
2022/09/17 07:08:22;;;;;;;;;3.67;3.00;;;;;11.53;74.50;101618.38;5037486;27;45156;-78
2022/09/17 07:10:47;;;;;;;;;6.33;6.00;;;;;11.57;74.51;101631.22;5035752;27;46016;-77
2022/09/17 07:13:13;;;;;;;;;4.00;4.00;;;;;11.57;74.26;101615.25;5037599;27;45271;-78
2022/09/17 07:15:38;;;;;;;;;6.00;4.67;;;;;11.66;74.64;101623.25;5037370;27;45482;-77
2022/09/17 07:18:08;;;;;;;;;6.00;6.00;;;;;11.78;75.02;101621.13;5039739;28;46898;-77
2022/09/17 07:20:33;;;;;;;;;4.00;3.00;;;;;11.81;74.69;101603.00;5041473;27;45528;-77
2022/09/17 07:22:59;;;;;;;;;4.00;4.00;;;;;11.98;74.26;101616.38;5046041;28;45302;-77
2022/09/17 07:25:27;;;;;;;;;6.00;5.00;;;;;12.10;74.25;101622.28;5045961;27;45375;-77
2022/09/17 07:27:53;;;;;;;;;5.67;5.00;;;;;12.22;73.87;101620.13;5039162;27;45477;-78
2022/09/17 07:30:19;;;;;;;;;3.33;3.33;;;;;12.21;73.40;101605.97;5039035;28;45283;-77
2022/09/17 07:32:45;;;;;;;;;3.00;2.00;;;;;12.30;73.65;101622.81;5039902;27;45314;-77
2022/09/17 07:35:11;;;;;;;;;3.33;3.33;;;;;12.40;73.49;101624.50;5039538;27;45271;-78
2022/09/17 07:37:36;;;;;;;;;3.33;3.00;;;;;12.45;73.26;101631.00;5055441;27;45181;-78
2022/09/17 07:40:03;;;;;;;;;3.67;3.67;;;;;12.56;72.38;101626.34;5032416;27;45268;-78
2022/09/17 07:42:30;;;;;;;;;3.00;3.00;;;;;12.62;72.02;101631.84;5046761;27;45339;-78
2022/09/17 07:44:55;;;;;;;;;2.00;2.00;;;;;12.61;71.76;101632.03;5041297;27;46103;-78
2022/09/17 07:47:20;;;;;;;;;5.00;3.00;;;;;12.83;71.57;101635.00;5041979;28;45481;-78
2022/09/17 07:49:46;;;;;;;;;3.00;3.00;;;;;12.83;71.20;101624.34;5054726;27;45377;-79
2022/09/17 07:52:11;;;;;;;;;3.00;3.00;;;;;12.96;71.26;101629.19;5059970;27;45162;-79
2022/09/17 07:54:36;;;;;;;;;3.00;2.00;;;;;12.99;71.04;101623.50;5062564;27;45494;-79
2022/09/17 07:57:02;;;;;;;;;4.00;4.00;;;;;13.09;70.70;101632.19;5058086;27;47488;-78
2022/09/17 07:59:28;;;;;;;;;3.33;2.67;;;;;13.19;70.63;101633.81;5061126;27;45423;-78
2022/09/17 08:01:53;;;;;;;;;3.33;2.33;;;;;13.19;70.11;101617.78;5060604;27;45386;-78
2022/09/17 08:04:19;;;;;;;;;3.00;1.00;;;;;13.29;69.98;101630.97;5058413;27;45716;-79
2022/09/17 08:06:47;;;;;;;;;3.33;3.00;;;;;13.35;70.30;101638.28;5046496;27;45252;-77
2022/09/17 08:09:14;;;;;;;;;2.67;2.00;;;;;13.41;69.57;101636.78;5042843;27;45481;-82
2022/09/17 08:11:40;;;;;;;;;2.00;2.00;;;;;13.49;69.63;101639.41;5025353;27;45307;-82
2022/09/17 08:14:08;;;;;;;;;1.33;1.00;;;;;13.57;69.73;101647.44;5043876;27;45482;-82
2022/09/17 08:16:33;;;;;;;;;3.33;1.33;;;;;13.65;69.22;101638.56;5038758;27;45460;-81
2022/09/17 08:18:59;;;;;;;;;0.67;0.67;;;;;13.62;68.55;101629.03;5017936;28;45833;-80
2022/09/17 08:21:24;;;;;;;;;1.67;1.00;;;;;13.79;68.87;101638.81;5049678;28;45232;-82
2022/09/17 08:23:49;;;;;;;;;1.00;1.00;;;;;13.80;68.59;101629.81;5026158;27;47031;-82
2022/09/17 08:26:18;;;;;;;;;1.00;1.00;;;;;13.87;68.43;101633.47;5039470;27;47988;-81
2022/09/17 08:28:46;;;;;;;;;0.67;0.67;;;;;13.99;68.34;101639.25;5037240;27;45413;-83
2022/09/17 08:31:12;;;;;;;;;3.00;3.00;;;;;14.10;67.99;101648.72;5033003;27;45339;-82
2022/09/17 08:33:39;;;;;;;;;1.00;1.00;;;;;14.17;68.25;101649.69;5114036;27;45838;-81
2022/09/17 08:36:07;;;;;;;;;1.33;1.33;;;;;14.18;67.53;101642.47;5036130;27;46553;-83
2022/09/17 08:38:36;;;;;;;;;2.00;2.00;;;;;14.22;67.20;101647.28;5036087;28;45392;-82
2022/09/17 08:41:10;;;;;;;;;3.67;1.00;;;;;14.34;66.74;101655.75;5056460;27;45384;-81
2022/09/17 08:43:48;;;;;;;;;0.00;0.00;;;;;14.34;66.78;101644.22;5034795;27;46022;-81
2022/09/17 08:46:13;;;;;;;;;1.00;1.00;;;;;14.39;65.39;101649.88;5036176;27;45387;-82
2022/09/17 08:48:48;;;;;;;;;2.67;0.67;;;;;14.50;65.50;101660.16;5036411;27;45236;-82
2022/09/17 08:51:40;;;;;;;;;1.00;1.00;;;;;14.54;65.61;101660.63;5030919;28;45291;-81
2022/09/17 08:54:19;;;;;;;;;0.33;0.00;;;;;14.55;63.72;101650.78;5044015;27;45390;-81
2022/09/17 08:56:53;;;;;;;;;1.00;1.00;;;;;14.54;64.42;101652.59;5053797;27;48025;-82
2022/09/17 08:59:33;;;;;;;;;8.00;8.00;;;;;14.57;64.36;101657.59;5028383;27;45712;-82
2022/09/17 09:02:17;;;;;;;;;0.67;0.00;;;;;14.66;64.30;101663.72;5036150;27;45482;-82
2022/09/17 09:05:14;;;;;;;;;5.00;5.00;;;;;14.68;63.57;101666.22;5028940;28;47153;-82
2022/09/17 09:07:50;;;;;;;;;0.00;0.00;;;;;14.73;63.34;101658.50;5048579;27;45449;-82
2022/09/17 09:10:44;;;;;;;;;0.00;0.00;;;;;14.83;63.59;101666.28;5032617;27;45766;-82
2022/09/17 09:13:14;;;;;;;;;1.67;0.33;;;;;14.79;62.04;101657.81;5028577;27;45459;-81
2022/09/17 09:15:44;;;;;;;;;2.00;1.00;;;;;14.83;63.06;101658.28;5035404;27;46342;-82
2022/09/17 09:18:24;;;;;;;;;0.00;0.00;;;;;14.92;62.24;101667.91;5038482;28;47475;-83
2022/09/17 09:20:54;;;;;;;;;1.33;0.33;;;;;15.03;61.62;101674.69;5037816;28;45343;-83
2022/09/17 09:23:32;;;;;;;;;0.33;0.00;;;;;15.05;61.88;101677.97;5055134;27;45453;-82
2022/09/17 09:26:16;;;;;;;;;1.00;0.00;;;;;15.13;62.27;101675.25;5036298;27;47170;-81
2022/09/17 09:28:47;;;;;;;;;1.00;0.67;;;;;15.29;61.74;101675.28;5043669;27;45317;-77
2022/09/17 09:31:25;;;;;;;;;2.00;1.00;;;;;15.43;61.87;101676.28;5045416;27;45342;-76
2022/09/17 09:33:51;;;;;;;;;0.00;0.00;;;;;15.53;60.55;101682.19;5047953;27;45411;-76
2022/09/17 09:36:20;;;;;;;;;0.67;0.67;;;;;15.62;61.55;101672.22;5039179;27;45348;-76
2022/09/17 09:39:01;;;;;;;;;2.00;1.00;;;;;15.71;59.61;101668.44;5031682;28;47550;-76
2022/09/17 09:42:10;;;;;;;;;2.33;1.33;;;;;15.86;59.90;101664.94;5038643;27;45329;-77
2022/09/17 09:44:36;;;;;;;;;0.00;0.00;;;;;16.01;60.44;101667.59;5047450;27;45278;-76
2022/09/17 09:47:40;;;;;;;;;1.00;1.00;;;;;16.24;59.39;101664.78;5021861;27;46594;-78
2022/09/17 09:50:33;;;;;;;;;0.67;0.67;;;;;16.36;58.99;101672.31;5030293;27;47657;-76
2022/09/17 09:53:20;;;;;;;;;2.00;1.67;;;;;16.25;58.14;101666.41;5038079;27;45282;-75
2022/09/17 09:56:23;;;;;;;;;0.00;0.00;;;;;16.25;58.28;101671.78;5038035;27;45487;-77
2022/09/17 09:58:48;;;;;;;;;0.67;0.00;;;;;16.26;57.77;101664.59;5037878;27;45975;-76
2022/09/17 10:01:15;;;;;;;;;0.00;0.00;;;;;16.45;58.17;101664.97;5027882;27;47178;-78
2022/09/17 10:03:44;;;;;;;;;1.00;1.00;;;;;16.58;57.04;101664.28;5045423;27;45254;-77
2022/09/17 10:06:11;;;;;;;;;0.00;0.00;;;;;16.71;56.25;101655.53;5026233;27;45335;-76
2022/09/17 10:09:01;;;;;;;;;0.33;0.33;;;;;16.90;55.25;101659.38;5027625;27;47206;-78
2022/09/17 10:11:28;;;;;;;;;1.00;0.00;;;;;17.07;54.24;101651.06;5040430;27;45922;-76
2022/09/17 10:14:22;;;;;;;;;0.00;0.00;;;;;17.16;54.27;101647.22;5034674;27;45442;-79
2022/09/17 10:16:47;;;;;;;;;0.00;0.00;;;;;17.39;53.90;101656.88;5036810;27;45348;-79
2022/09/17 10:19:23;;;;;;;;;0.00;0.00;;;;;17.42;53.73;101641.19;5039663;27;45533;-77
2022/09/17 10:21:49;;;;;;;;;0.00;0.00;;;;;17.56;51.01;101651.16;5037825;27;45328;-77
2022/09/17 10:24:23;;;;;;;;;2.33;0.00;;;;;17.68;51.93;101646.88;5037569;27;45333;-77
2022/09/17 10:26:50;;;;;;;;;0.00;0.00;;;;;17.75;51.86;101649.63;5030767;27;45481;-78
2022/09/17 10:29:18;;;;;;;;;0.00;0.00;;;;;17.80;52.16;101649.81;5026546;27;46561;-77
2022/09/17 10:31:52;;;;;;;;;0.00;0.00;;;;;17.91;51.16;101654.66;5037081;27;47584;-77
2022/09/17 10:34:26;;;;;;;;;0.00;0.00;;;;;17.78;49.74;101654.59;5020545;27;45306;-76
2022/09/17 10:36:53;;;;;;;;;0.00;0.00;;;;;17.70;47.40;101649.38;5038991;27;45279;-78
2022/09/17 10:39:30;;;;;;;;;0.00;0.00;;;;;17.78;49.63;101650.03;5031733;27;47129;-80
2022/09/17 10:41:58;;;;;;;;;0.00;0.00;;;;;17.94;49.88;101641.81;5028396;27;48095;-80
2022/09/17 10:44:26;;;;;;;;;0.00;0.00;;;;;18.04;48.88;101648.47;5064303;27;45390;-79
2022/09/17 10:46:52;;;;;;;;;0.00;0.00;;;;;18.09;49.32;101645.19;5047836;27;45267;-78
2022/09/17 10:49:20;;;;;;;;;0.00;0.00;;;;;18.12;49.67;101646.66;5023509;27;46388;-76
2022/09/17 10:51:46;;;;;;;;;0.00;0.00;;;;;17.99;49.26;101647.44;5052980;27;46421;-77
2022/09/17 10:54:11;;;;;;;;;0.00;0.00;;;;;17.95;49.15;101654.22;5060968;27;45458;-77
2022/09/17 10:56:41;;;;;;;;;1.00;0.33;;;;;17.83;46.66;101633.31;5051747;27;45437;-75
2022/09/17 10:59:36;;;;;;;;;0.00;0.00;;;;;18.02;46.24;101644.34;5042926;27;45379;-76
2022/09/17 11:02:24;;;;;;;;;0.00;0.00;;;;;18.21;46.21;101634.69;5028853;27;47313;-76
2022/09/17 11:05:17;;;;;;;;;1.33;0.00;;;;;18.40;47.59;101632.22;5038302;27;45321;-76
2022/09/17 11:08:12;;;;;;;;;2.00;2.00;;;;;18.51;46.45;101628.94;5033389;27;45417;-75
2022/09/17 11:10:46;;;;;;;;;1.00;0.00;;;;;18.65;47.78;101632.44;5033261;27;46123;-76
2022/09/17 11:13:33;;;;;;;;;0.00;0.00;;;;;18.43;45.74;101618.34;5045617;27;45495;-76
2022/09/17 11:16:21;;;;;;;;;0.00;0.00;;;;;18.71;45.77;101614.66;5032212;27;45755;-77
2022/09/17 11:19:19;;;;;;;;;0.00;0.00;;;;;18.78;45.73;101611.94;5037375;27;45302;-77
2022/09/17 11:22:29;;;;;;;;;2.00;0.00;;;;;18.77;45.14;101613.81;5030363;27;45554;-76
2022/09/17 11:25:20;;;;;;;;;0.00;0.00;;;;;18.73;45.30;101617.97;5043337;27;48072;-77
2022/09/17 11:28:23;;;;;;;;;0.00;0.00;;;;;18.67;43.66;101616.09;5037480;27;45352;-76
2022/09/17 11:31:12;;;;;;;;;0.00;0.00;;;;;18.78;44.69;101604.72;5037644;27;45291;-78
2022/09/17 11:33:49;;;;;;;;;0.00;0.00;;;;;19.02;45.32;101605.09;5037993;27;45309;-78
2022/09/17 11:36:22;;;;;;;;;0.67;0.00;;;;;19.28;43.88;101603.38;5031310;27;47249;-77
2022/09/17 11:38:50;;;;;;;;;0.00;0.00;;;;;19.42;42.47;101584.47;5038672;27;45319;-77
2022/09/17 11:41:24;;;;;;;;;0.00;0.00;;;;;19.55;42.31;101589.00;5046927;27;45325;-76